createdAt,value
2019-04-03T00:02:17.661Z,14.10
2019-04-03T00:07:41.105Z,13.13
2019-04-03T00:13:05.048Z,14.17
2019-04-03T00:18:28.923Z,12.90
2019-04-03T00:23:53.684Z,12.93
2019-04-03T00:29:17.665Z,13.77
2019-04-03T00:34:42.355Z,14.43
2019-04-03T00:40:07.520Z,13.40
2019-04-03T00:45:31.464Z,14.70
2019-04-03T00:50:57.290Z,13.33
2019-04-03T00:56:26.100Z,13.50
2019-04-03T01:01:49.387Z,13.90
2019-04-03T01:07:13.562Z,13.83
2019-04-03T01:12:37.171Z,14.23
2019-04-03T01:18:04.312Z,14.60
2019-04-03T01:23:28.196Z,13.60
2019-04-03T01:28:52.707Z,14.80
2019-04-03T01:34:17.807Z,14.13
2019-04-03T01:39:43.059Z,14.20
2019-04-03T01:45:08.077Z,14.03
2019-04-03T01:50:32.100Z,14.13
2019-04-03T01:55:56.846Z,13.50
2019-04-03T02:01:20.620Z,14.00
2019-04-03T02:06:45.154Z,14.23
2019-04-03T02:12:09.689Z,15.07
2019-04-03T02:17:35.415Z,13.30
2019-04-03T02:23:00.579Z,14.30
2019-04-03T02:28:24.468Z,12.47
2019-04-03T02:33:49.333Z,14.23
2019-04-03T02:39:13.972Z,13.20
2019-04-03T02:44:39.099Z,14.03
2019-04-03T02:50:04.043Z,13.83
2019-04-03T02:55:28.317Z,14.83
2019-04-03T03:00:53.325Z,14.77
2019-04-03T03:06:18.420Z,13.83
2019-04-03T03:11:44.446Z,13.60
2019-04-03T03:17:10.060Z,14.23
2019-04-03T03:22:37.798Z,15.63
2019-04-03T03:28:01.937Z,15.47
2019-04-03T03:33:35.672Z,14.97
2019-04-03T03:38:54.469Z,15.77
2019-04-03T03:44:22.744Z,15.23
2019-04-03T03:49:50.681Z,16.67
2019-04-03T03:55:15.472Z,16.03
2019-04-03T04:00:39.852Z,16.03
2019-04-03T04:06:03.557Z,17.80
2019-04-03T04:11:30.880Z,15.70
2019-04-03T04:16:55.553Z,15.30
2019-04-03T04:22:20.297Z,16.90
2019-04-03T04:27:44.382Z,16.90
2019-04-03T04:33:09.288Z,17.90
2019-04-03T04:38:32.903Z,18.10
2019-04-03T04:43:57.651Z,18.47
2019-04-03T04:49:22.655Z,17.20
2019-04-03T04:54:47.158Z,17.87
2019-04-03T05:00:11.964Z,18.37
2019-04-03T05:05:36.764Z,18.57
2019-04-03T05:11:01.037Z,18.30
2019-04-03T05:16:25.887Z,19.47
2019-04-03T05:21:50.794Z,17.07
2019-04-03T05:27:16.081Z,18.47
2019-04-03T05:32:41.191Z,17.77
2019-04-03T05:38:06.775Z,17.47
2019-04-03T05:43:31.579Z,17.77
2019-04-03T05:48:55.642Z,18.37
2019-04-03T05:54:19.983Z,17.53
2019-04-03T05:59:44.779Z,17.47
2019-04-03T06:05:11.258Z,16.70
2019-04-03T06:10:36.565Z,17.40
2019-04-03T06:15:59.706Z,21.37
2019-04-03T06:21:24.200Z,19.53
2019-04-03T06:26:48.325Z,18.57
2019-04-03T06:32:11.997Z,18.63
2019-04-03T06:37:36.189Z,19.13
2019-04-03T06:43:00.304Z,17.87
2019-04-03T06:48:24.239Z,17.33
2019-04-03T06:53:49.083Z,18.43
2019-04-03T06:59:14.500Z,18.10
2019-04-03T07:04:38.942Z,18.47
2019-04-03T07:10:04.245Z,18.67
2019-04-03T07:15:28.471Z,17.70
2019-04-03T07:20:52.720Z,17.97
2019-04-03T07:26:17.415Z,17.63
2019-04-03T07:31:41.051Z,19.20
2019-04-03T07:37:06.667Z,17.73
2019-04-03T07:42:30.537Z,18.13
2019-04-03T07:47:54.729Z,17.87
2019-04-03T07:53:19.882Z,17.63
2019-04-03T07:58:44.766Z,18.53
2019-04-03T08:04:09.277Z,17.90
2019-04-03T08:09:33.743Z,18.10
2019-04-03T08:14:58.030Z,17.10
2019-04-03T08:20:23.742Z,18.80
2019-04-03T08:25:49.376Z,17.40
2019-04-03T08:31:14.009Z,17.30
2019-04-03T08:36:39.493Z,17.63
2019-04-03T08:42:03.709Z,16.83
2019-04-03T08:47:28.697Z,17.13
2019-04-03T08:52:52.495Z,17.20
2019-04-03T08:58:17.209Z,16.93
2019-04-03T09:03:41.108Z,16.65
2019-04-03T09:09:08.852Z,16.70
2019-04-03T09:14:32.842Z,17.62
2019-04-03T09:19:57.406Z,17.12
2019-04-03T09:25:21.921Z,16.40
2019-04-03T09:30:47.965Z,17.00
2019-04-03T09:36:12.415Z,16.12
2019-04-03T09:41:36.464Z,16.95
2019-04-03T09:47:03.131Z,16.40
2019-04-03T09:52:37.963Z,15.03
2019-04-03T09:57:53.407Z,14.40
2019-04-03T10:03:17.298Z,16.12
2019-04-03T10:08:41.595Z,14.98
2019-04-03T10:14:06.233Z,14.25
2019-04-03T10:19:30.806Z,15.13
2019-04-03T10:24:55.277Z,14.43
2019-04-03T10:30:21.491Z,14.13
2019-04-03T10:35:47.262Z,15.10
2019-04-03T10:41:11.688Z,15.03
2019-04-03T10:46:35.748Z,14.95
2019-04-03T10:52:00.204Z,14.47
2019-04-03T10:57:24.562Z,14.18
2019-04-03T11:02:49.807Z,13.60
2019-04-03T11:08:14.114Z,13.30
2019-04-03T11:13:38.754Z,14.15
2019-04-03T11:19:06.602Z,14.33
2019-04-03T11:24:30.149Z,13.80
2019-04-03T11:29:54.276Z,13.20
2019-04-03T11:35:21.942Z,13.28
2019-04-03T11:40:44.429Z,12.88
2019-04-03T11:46:08.654Z,14.00
2019-04-03T11:51:34.006Z,13.50
2019-04-03T11:56:59.365Z,12.85
2019-04-03T12:02:23.190Z,12.78
2019-04-03T12:07:47.143Z,12.55
2019-04-03T12:13:13.584Z,13.35
2019-04-03T12:18:37.352Z,12.15
2019-04-03T12:24:00.929Z,12.93
2019-04-03T12:29:26.405Z,13.15
2019-04-03T12:34:51.273Z,12.18
2019-04-03T12:40:16.840Z,11.55
2019-04-03T12:45:42.567Z,12.15
2019-04-03T12:51:06.694Z,13.88
2019-04-03T12:56:31.501Z,13.53
2019-04-03T13:01:56.154Z,15.03
2019-04-03T13:07:20.459Z,14.85
2019-04-03T13:12:45.162Z,16.75
2019-04-03T13:18:09.826Z,15.55
2019-04-03T13:23:33.875Z,15.55
2019-04-03T13:28:57.572Z,15.95
2019-04-03T13:34:22.159Z,15.80
2019-04-03T13:39:47.246Z,15.68
2019-04-03T13:45:12.458Z,15.75
2019-04-03T13:50:36.195Z,15.13
2019-04-03T13:56:01.140Z,16.75
2019-04-03T14:01:27.600Z,14.80
2019-04-03T14:06:50.565Z,16.12
2019-04-03T14:12:17.028Z,15.75
2019-04-03T14:17:53.412Z,14.60
2019-04-03T14:23:06.621Z,15.08
2019-04-03T14:28:33.367Z,13.72
2019-04-03T14:33:57.406Z,14.10
2019-04-03T14:39:22.802Z,14.90
2019-04-03T14:44:47.630Z,15.03
2019-04-03T14:50:11.637Z,15.48
2019-04-03T14:55:46.639Z,15.13
2019-04-03T15:01:07.044Z,15.38
2019-04-03T15:06:31.083Z,14.38
2019-04-03T15:11:54.772Z,13.95
2019-04-03T15:17:20.435Z,12.63
2019-04-03T15:22:44.202Z,12.90
2019-04-03T15:28:08.301Z,11.83
2019-04-03T15:33:33.054Z,12.40
2019-04-03T15:38:59.669Z,11.50
2019-04-03T15:44:23.848Z,13.48
2019-04-03T15:49:48.184Z,12.20
2019-04-03T15:55:12.368Z,11.93
2019-04-03T16:00:36.772Z,12.60
2019-04-03T16:06:03.479Z,12.58
2019-04-03T16:11:28.551Z,12.82
2019-04-03T16:16:52.436Z,12.33
2019-04-03T16:22:16.854Z,13.13
2019-04-03T16:27:42.014Z,11.90
2019-04-03T16:33:19.018Z,13.25
2019-04-03T16:38:32.541Z,11.38
2019-04-03T16:43:57.419Z,13.13
2019-04-03T16:49:22.819Z,13.80
2019-04-03T16:54:47.484Z,11.90
2019-04-03T17:00:11.644Z,13.98
2019-04-03T17:05:36.636Z,12.70
2019-04-03T17:11:01.473Z,13.80
2019-04-03T17:16:25.624Z,13.53
2019-04-03T17:21:51.518Z,12.98
2019-04-03T17:27:15.406Z,13.93
2019-04-03T17:32:40.939Z,13.43
2019-04-03T17:38:06.204Z,12.80
2019-04-03T17:43:30.942Z,12.47
2019-04-03T17:48:56.007Z,13.10
2019-04-03T17:54:20.257Z,14.53
2019-04-03T17:59:45.146Z,16.57
2019-04-03T18:05:10.855Z,13.70
2019-04-03T18:10:34.689Z,13.40
2019-04-03T18:15:59.451Z,13.77
2019-04-03T18:21:24.806Z,13.53
2019-04-03T18:26:48.985Z,13.60
2019-04-03T18:32:13.639Z,13.00
2019-04-03T18:37:40.917Z,13.47
2019-04-03T18:43:03.643Z,13.50
2019-04-03T18:48:28.865Z,13.60
2019-04-03T18:53:53.435Z,13.47
2019-04-03T18:59:17.976Z,13.87
2019-04-03T19:04:43.813Z,12.70
2019-04-03T19:10:08.345Z,13.67
2019-04-03T19:15:33.688Z,13.83
2019-04-03T19:20:59.102Z,13.83
2019-04-03T19:26:23.767Z,14.77
2019-04-03T19:31:48.507Z,15.53
2019-04-03T19:37:12.340Z,14.23
2019-04-03T19:42:37.110Z,13.43
2019-04-03T19:48:02.002Z,14.80
2019-04-03T19:53:27.164Z,14.40
2019-04-03T19:58:51.762Z,15.77
2019-04-03T20:04:16.389Z,16.13
2019-04-03T20:09:41.073Z,16.07
2019-04-03T20:15:06.997Z,16.23
2019-04-03T20:20:33.572Z,16.40
2019-04-03T20:25:58.261Z,16.63
2019-04-03T20:31:22.855Z,16.43
2019-04-03T20:36:47.192Z,15.27
2019-04-03T20:42:12.323Z,14.60
2019-04-03T20:47:39.954Z,15.70
2019-04-03T20:53:04.162Z,15.20
2019-04-03T20:58:28.845Z,15.93
2019-04-03T21:03:53.523Z,16.00
2019-04-03T21:09:17.405Z,14.73
2019-04-03T21:14:41.552Z,14.67
2019-04-03T21:20:06.581Z,15.03
2019-04-03T21:25:31.258Z,14.43
2019-04-03T21:30:55.501Z,15.37
2019-04-03T21:36:19.722Z,14.47
2019-04-03T21:41:43.378Z,15.70
2019-04-03T21:47:07.901Z,15.13
2019-04-03T21:52:36.217Z,16.13
2019-04-03T21:57:58.185Z,14.53
2019-04-03T22:03:21.955Z,14.20
2019-04-03T22:08:46.337Z,13.53
2019-04-03T22:14:11.045Z,13.13
2019-04-03T22:19:36.489Z,14.53
2019-04-03T22:25:00.125Z,13.53
2019-04-03T22:30:24.711Z,13.40
2019-04-03T22:35:49.190Z,13.87
2019-04-03T22:41:13.218Z,13.93
2019-04-03T22:46:36.879Z,13.33
2019-04-03T22:52:01.399Z,14.13
2019-04-03T22:57:26.507Z,13.03
2019-04-03T23:02:50.686Z,14.07
2019-04-03T23:08:14.679Z,15.20
2019-04-03T23:13:39.425Z,14.63
2019-04-03T23:19:04.106Z,14.63
2019-04-03T23:24:29.416Z,14.10
2019-04-03T23:29:54.569Z,13.53
2019-04-03T23:35:20.570Z,13.97
2019-04-03T23:40:45.631Z,13.90
2019-04-03T23:46:09.373Z,14.10
2019-04-03T23:51:34.491Z,15.30
2019-04-03T23:56:59.121Z,14.17
